sensor_id;sensor_type;location;lat;lon;timestamp;P1;durP1;ratioP1;P2;durP2;ratioP2
36747;SDS011;22716;51.556;5.080;2023-03-14T00:01:22;3.67;;;1.90;;
36747;SDS011;22716;51.556;5.080;2023-03-14T00:03:52;4.53;;;1.93;;
36747;SDS011;22716;51.556;5.080;2023-03-14T00:06:20;7.90;;;1.97;;
36747;SDS011;22716;51.556;5.080;2023-03-14T00:08:49;8.33;;;2.10;;
36747;SDS011;22716;51.556;5.080;2023-03-14T00:11:20;9.70;;;2.60;;
36747;SDS011;22716;51.556;5.080;2023-03-14T00:13:49;7.10;;;2.00;;
36747;SDS011;22716;51.556;5.080;2023-03-14T00:16:19;12.90;;;2.13;;
36747;SDS011;22716;51.556;5.080;2023-03-14T00:18:51;7.87;;;1.67;;
36747;SDS011;22716;51.556;5.080;2023-03-14T00:21:19;7.33;;;2.30;;
36747;SDS011;22716;51.556;5.080;2023-03-14T00:23:48;7.60;;;2.23;;
36747;SDS011;22716;51.556;5.080;2023-03-14T00:26:18;5.43;;;1.67;;
36747;SDS011;22716;51.556;5.080;2023-03-14T00:28:51;13.30;;;1.70;;
36747;SDS011;22716;51.556;5.080;2023-03-14T00:31:21;5.67;;;1.50;;
36747;SDS011;22716;51.556;5.080;2023-03-14T00:33:53;6.37;;;1.47;;
36747;SDS011;22716;51.556;5.080;2023-03-14T00:36:22;6.53;;;1.40;;
36747;SDS011;22716;51.556;5.080;2023-03-14T00:38:51;6.20;;;1.93;;
36747;SDS011;22716;51.556;5.080;2023-03-14T00:41:21;6.23;;;1.70;;
36747;SDS011;22716;51.556;5.080;2023-03-14T00:43:51;4.97;;;1.53;;
36747;SDS011;22716;51.556;5.080;2023-03-14T00:46:20;7.63;;;2.20;;
36747;SDS011;22716;51.556;5.080;2023-03-14T00:48:49;3.87;;;1.53;;
36747;SDS011;22716;51.556;5.080;2023-03-14T00:51:20;8.10;;;2.13;;
36747;SDS011;22716;51.556;5.080;2023-03-14T00:53:49;7.50;;;1.67;;
36747;SDS011;22716;51.556;5.080;2023-03-14T00:56:17;7.00;;;1.70;;
36747;SDS011;22716;51.556;5.080;2023-03-14T00:58:46;6.03;;;1.67;;
36747;SDS011;22716;51.556;5.080;2023-03-14T01:01:16;5.57;;;2.03;;
36747;SDS011;22716;51.556;5.080;2023-03-14T01:03:46;5.43;;;1.43;;
36747;SDS011;22716;51.556;5.080;2023-03-14T01:06:16;5.20;;;1.30;;
36747;SDS011;22716;51.556;5.080;2023-03-14T01:08:49;10.35;;;2.20;;
36747;SDS011;22716;51.556;5.080;2023-03-14T01:11:20;9.23;;;2.07;;
36747;SDS011;22716;51.556;5.080;2023-03-14T01:13:50;6.67;;;1.47;;
36747;SDS011;22716;51.556;5.080;2023-03-14T01:16:20;6.63;;;1.47;;
36747;SDS011;22716;51.556;5.080;2023-03-14T01:18:50;6.10;;;1.50;;
36747;SDS011;22716;51.556;5.080;2023-03-14T01:21:23;6.97;;;1.20;;
36747;SDS011;22716;51.556;5.080;2023-03-14T01:23:54;3.88;;;1.65;;
36747;SDS011;22716;51.556;5.080;2023-03-14T01:26:25;7.67;;;1.47;;
36747;SDS011;22716;51.556;5.080;2023-03-14T01:28:55;3.63;;;1.40;;
36747;SDS011;22716;51.556;5.080;2023-03-14T01:31:25;5.03;;;1.50;;
36747;SDS011;22716;51.556;5.080;2023-03-14T01:33:55;6.27;;;1.77;;
36747;SDS011;22716;51.556;5.080;2023-03-14T01:36:27;8.80;;;1.30;;
36747;SDS011;22716;51.556;5.080;2023-03-14T01:38:55;7.60;;;1.50;;
36747;SDS011;22716;51.556;5.080;2023-03-14T01:41:25;4.93;;;1.47;;
36747;SDS011;22716;51.556;5.080;2023-03-14T01:43:54;3.73;;;1.40;;
36747;SDS011;22716;51.556;5.080;2023-03-14T01:49:15;3.63;;;1.47;;
36747;SDS011;22716;51.556;5.080;2023-03-14T01:51:52;11.43;;;2.43;;
36747;SDS011;22716;51.556;5.080;2023-03-14T01:54:25;4.97;;;1.40;;
36747;SDS011;22716;51.556;5.080;2023-03-14T01:57:01;4.63;;;1.30;;
36747;SDS011;22716;51.556;5.080;2023-03-14T01:59:34;8.37;;;1.60;;
36747;SDS011;22716;51.556;5.080;2023-03-14T02:02:05;7.90;;;1.80;;
36747;SDS011;22716;51.556;5.080;2023-03-14T02:04:35;7.67;;;1.10;;
36747;SDS011;22716;51.556;5.080;2023-03-14T02:07:11;6.50;;;1.80;;
36747;SDS011;22716;51.556;5.080;2023-03-14T02:09:43;9.53;;;2.33;;
36747;SDS011;22716;51.556;5.080;2023-03-14T02:12:14;9.20;;;4.37;;
36747;SDS011;22716;51.556;5.080;2023-03-14T02:14:46;8.02;;;2.17;;
36747;SDS011;22716;51.556;5.080;2023-03-14T02:17:16;8.90;;;1.93;;
36747;SDS011;22716;51.556;5.080;2023-03-14T02:19:50;7.33;;;3.37;;
36747;SDS011;22716;51.556;5.080;2023-03-14T02:22:33;12.47;;;2.47;;
36747;SDS011;22716;51.556;5.080;2023-03-14T02:25:04;6.93;;;2.70;;
36747;SDS011;22716;51.556;5.080;2023-03-14T02:27:39;7.28;;;2.42;;
36747;SDS011;22716;51.556;5.080;2023-03-14T02:30:10;9.00;;;2.87;;
36747;SDS011;22716;51.556;5.080;2023-03-14T02:32:43;9.00;;;2.57;;
36747;SDS011;22716;51.556;5.080;2023-03-14T02:35:15;6.43;;;2.20;;
36747;SDS011;22716;51.556;5.080;2023-03-14T02:37:49;10.43;;;2.10;;
36747;SDS011;22716;51.556;5.080;2023-03-14T02:40:23;13.27;;;3.73;;
36747;SDS011;22716;51.556;5.080;2023-03-14T02:42:54;8.97;;;2.93;;
36747;SDS011;22716;51.556;5.080;2023-03-14T02:45:33;12.50;;;2.37;;
36747;SDS011;22716;51.556;5.080;2023-03-14T02:48:07;9.23;;;2.70;;
36747;SDS011;22716;51.556;5.080;2023-03-14T02:50:41;7.10;;;2.30;;
36747;SDS011;22716;51.556;5.080;2023-03-14T02:53:12;9.07;;;2.47;;
36747;SDS011;22716;51.556;5.080;2023-03-14T02:55:44;9.00;;;2.10;;
36747;SDS011;22716;51.556;5.080;2023-03-14T02:58:17;7.80;;;2.00;;
36747;SDS011;22716;51.556;5.080;2023-03-14T03:00:47;11.63;;;2.30;;
36747;SDS011;22716;51.556;5.080;2023-03-14T03:03:17;13.23;;;2.63;;
36747;SDS011;22716;51.556;5.080;2023-03-14T03:05:47;9.47;;;1.63;;
36747;SDS011;22716;51.556;5.080;2023-03-14T03:08:17;11.53;;;2.43;;
36747;SDS011;22716;51.556;5.080;2023-03-14T03:10:46;11.70;;;2.90;;
36747;SDS011;22716;51.556;5.080;2023-03-14T03:13:18;7.57;;;1.63;;
36747;SDS011;22716;51.556;5.080;2023-03-14T03:15:47;8.10;;;1.60;;
36747;SDS011;22716;51.556;5.080;2023-03-14T03:18:16;10.57;;;2.93;;
36747;SDS011;22716;51.556;5.080;2023-03-14T03:20:45;6.73;;;1.47;;
36747;SDS011;22716;51.556;5.080;2023-03-14T03:23:14;5.70;;;1.60;;
36747;SDS011;22716;51.556;5.080;2023-03-14T03:25:46;5.93;;;1.90;;
36747;SDS011;22716;51.556;5.080;2023-03-14T03:28:19;6.25;;;1.75;;
36747;SDS011;22716;51.556;5.080;2023-03-14T03:30:48;8.43;;;2.40;;
36747;SDS011;22716;51.556;5.080;2023-03-14T03:33:17;7.53;;;2.20;;
36747;SDS011;22716;51.556;5.080;2023-03-14T03:35:48;12.43;;;2.40;;
36747;SDS011;22716;51.556;5.080;2023-03-14T03:38:18;5.33;;;1.60;;
36747;SDS011;22716;51.556;5.080;2023-03-14T03:40:48;7.07;;;1.77;;
36747;SDS011;22716;51.556;5.080;2023-03-14T03:43:19;4.17;;;1.53;;
36747;SDS011;22716;51.556;5.080;2023-03-14T03:45:48;7.37;;;2.00;;
36747;SDS011;22716;51.556;5.080;2023-03-14T03:48:16;6.07;;;2.33;;
36747;SDS011;22716;51.556;5.080;2023-03-14T03:50:45;7.40;;;1.33;;
36747;SDS011;22716;51.556;5.080;2023-03-14T03:53:15;6.87;;;1.60;;
36747;SDS011;22716;51.556;5.080;2023-03-14T03:55:43;4.13;;;1.87;;
36747;SDS011;22716;51.556;5.080;2023-03-14T03:58:12;10.20;;;2.23;;
36747;SDS011;22716;51.556;5.080;2023-03-14T04:00:43;6.03;;;1.47;;
36747;SDS011;22716;51.556;5.080;2023-03-14T04:03:12;2.87;;;1.07;;
36747;SDS011;22716;51.556;5.080;2023-03-14T04:05:41;8.17;;;1.43;;
36747;SDS011;22716;51.556;5.080;2023-03-14T04:08:10;8.40;;;1.70;;
36747;SDS011;22716;51.556;5.080;2023-03-14T04:10:38;4.57;;;1.30;;
36747;SDS011;22716;51.556;5.080;2023-03-14T04:13:07;4.90;;;1.50;;
36747;SDS011;22716;51.556;5.080;2023-03-14T04:15:36;2.37;;;1.07;;
36747;SDS011;22716;51.556;5.080;2023-03-14T04:18:07;4.63;;;1.83;;
36747;SDS011;22716;51.556;5.080;2023-03-14T04:20:36;4.67;;;1.47;;
36747;SDS011;22716;51.556;5.080;2023-03-14T04:23:04;5.00;;;1.40;;
36747;SDS011;22716;51.556;5.080;2023-03-14T04:25:33;8.23;;;2.17;;
36747;SDS011;22716;51.556;5.080;2023-03-14T04:28:02;5.43;;;1.53;;
36747;SDS011;22716;51.556;5.080;2023-03-14T04:30:31;5.10;;;1.97;;
36747;SDS011;22716;51.556;5.080;2023-03-14T04:33:00;5.47;;;1.87;;
36747;SDS011;22716;51.556;5.080;2023-03-14T04:35:32;6.97;;;2.33;;
36747;SDS011;22716;51.556;5.080;2023-03-14T04:38:01;4.37;;;1.90;;
36747;SDS011;22716;51.556;5.080;2023-03-14T04:40:31;4.83;;;1.60;;
36747;SDS011;22716;51.556;5.080;2023-03-14T04:43:00;4.30;;;1.73;;
36747;SDS011;22716;51.556;5.080;2023-03-14T04:45:28;3.20;;;1.30;;
36747;SDS011;22716;51.556;5.080;2023-03-14T04:47:57;3.50;;;1.50;;
36747;SDS011;22716;51.556;5.080;2023-03-14T04:50:26;4.17;;;1.67;;
36747;SDS011;22716;51.556;5.080;2023-03-14T04:52:57;5.27;;;1.67;;
36747;SDS011;22716;51.556;5.080;2023-03-14T04:55:26;7.73;;;2.27;;
36747;SDS011;22716;51.556;5.080;2023-03-14T04:57:54;6.93;;;2.53;;
36747;SDS011;22716;51.556;5.080;2023-03-14T05:00:23;4.47;;;2.10;;
36747;SDS011;22716;51.556;5.080;2023-03-14T05:02:51;5.03;;;2.50;;
36747;SDS011;22716;51.556;5.080;2023-03-14T05:05:20;4.83;;;2.50;;
36747;SDS011;22716;51.556;5.080;2023-03-14T05:07:49;6.73;;;3.10;;
36747;SDS011;22716;51.556;5.080;2023-03-14T05:10:21;11.20;;;3.23;;
36747;SDS011;22716;51.556;5.080;2023-03-14T05:12:50;6.87;;;3.03;;
36747;SDS011;22716;51.556;5.080;2023-03-14T05:15:19;7.60;;;2.83;;
36747;SDS011;22716;51.556;5.080;2023-03-14T05:17:48;6.10;;;4.10;;
36747;SDS011;22716;51.556;5.080;2023-03-14T05:20:17;6.60;;;3.43;;
36747;SDS011;22716;51.556;5.080;2023-03-14T05:22:46;5.57;;;3.47;;
36747;SDS011;22716;51.556;5.080;2023-03-14T05:25:15;6.10;;;2.77;;
36747;SDS011;22716;51.556;5.080;2023-03-14T05:27:46;8.27;;;3.87;;
36747;SDS011;22716;51.556;5.080;2023-03-14T05:30:15;4.07;;;3.13;;
36747;SDS011;22716;51.556;5.080;2023-03-14T05:32:44;13.80;;;4.60;;
36747;SDS011;22716;51.556;5.080;2023-03-14T05:35:13;7.23;;;4.07;;
36747;SDS011;22716;51.556;5.080;2023-03-14T05:37:42;5.33;;;2.97;;
36747;SDS011;22716;51.556;5.080;2023-03-14T05:40:11;5.73;;;3.80;;
36747;SDS011;22716;51.556;5.080;2023-03-14T05:42:40;4.93;;;3.63;;
36747;SDS011;22716;51.556;5.080;2023-03-14T05:45:12;7.10;;;3.73;;
36747;SDS011;22716;51.556;5.080;2023-03-14T05:47:40;9.00;;;3.90;;
36747;SDS011;22716;51.556;5.080;2023-03-14T05:50:10;11.00;;;4.03;;
36747;SDS011;22716;51.556;5.080;2023-03-14T05:52:39;8.07;;;4.30;;
36747;SDS011;22716;51.556;5.080;2023-03-14T05:55:08;15.70;;;3.53;;
36747;SDS011;22716;51.556;5.080;2023-03-14T05:57:37;14.13;;;5.40;;
36747;SDS011;22716;51.556;5.080;2023-03-14T06:00:09;7.63;;;4.53;;
36747;SDS011;22716;51.556;5.080;2023-03-14T06:02:42;7.40;;;3.80;;
36747;SDS011;22716;51.556;5.080;2023-03-14T06:05:11;7.47;;;3.60;;
36747;SDS011;22716;51.556;5.080;2023-03-14T06:07:40;10.37;;;4.93;;
36747;SDS011;22716;51.556;5.080;2023-03-14T06:10:09;8.47;;;4.70;;
36747;SDS011;22716;51.556;5.080;2023-03-14T06:12:38;10.20;;;4.40;;
36747;SDS011;22716;51.556;5.080;2023-03-14T06:15:08;7.07;;;4.77;;
36747;SDS011;22716;51.556;5.080;2023-03-14T06:17:40;7.13;;;4.60;;
36747;SDS011;22716;51.556;5.080;2023-03-14T06:20:10;7.27;;;4.77;;
36747;SDS011;22716;51.556;5.080;2023-03-14T06:22:39;9.03;;;5.80;;
36747;SDS011;22716;51.556;5.080;2023-03-14T06:25:08;6.67;;;4.30;;
36747;SDS011;22716;51.556;5.080;2023-03-14T06:27:37;10.23;;;4.60;;
36747;SDS011;22716;51.556;5.080;2023-03-14T06:30:08;7.13;;;4.60;;
36747;SDS011;22716;51.556;5.080;2023-03-14T06:32:40;10.17;;;5.37;;
36747;SDS011;22716;51.556;5.080;2023-03-14T06:35:09;7.53;;;4.63;;
36747;SDS011;22716;51.556;5.080;2023-03-14T06:37:37;8.33;;;5.00;;
36747;SDS011;22716;51.556;5.080;2023-03-14T06:40:07;10.83;;;6.13;;
36747;SDS011;22716;51.556;5.080;2023-03-14T06:42:38;10.90;;;5.60;;
36747;SDS011;22716;51.556;5.080;2023-03-14T06:45:07;9.40;;;4.90;;
36747;SDS011;22716;51.556;5.080;2023-03-14T06:47:40;6.93;;;5.00;;
36747;SDS011;22716;51.556;5.080;2023-03-14T06:50:09;9.97;;;5.77;;
36747;SDS011;22716;51.556;5.080;2023-03-14T06:52:39;11.73;;;5.60;;
36747;SDS011;22716;51.556;5.080;2023-03-14T06:55:13;9.63;;;6.15;;
36747;SDS011;22716;51.556;5.080;2023-03-14T06:57:42;8.43;;;5.70;;
36747;SDS011;22716;51.556;5.080;2023-03-14T07:00:13;11.33;;;6.07;;
36747;SDS011;22716;51.556;5.080;2023-03-14T07:02:45;8.97;;;4.80;;
36747;SDS011;22716;51.556;5.080;2023-03-14T07:05:14;6.10;;;3.20;;
36747;SDS011;22716;51.556;5.080;2023-03-14T07:07:42;3.17;;;1.67;;
36747;SDS011;22716;51.556;5.080;2023-03-14T07:10:12;1.77;;;1.23;;
36747;SDS011;22716;51.556;5.080;2023-03-14T07:12:41;1.63;;;0.80;;
36747;SDS011;22716;51.556;5.080;2023-03-14T07:15:10;1.97;;;1.17;;
36747;SDS011;22716;51.556;5.080;2023-03-14T07:17:39;5.63;;;1.40;;
36747;SDS011;22716;51.556;5.080;2023-03-14T07:20:11;0.60;;;0.60;;
36747;SDS011;22716;51.556;5.080;2023-03-14T07:22:40;1.90;;;0.80;;
36747;SDS011;22716;51.556;5.080;2023-03-14T07:25:08;1.40;;;0.90;;
36747;SDS011;22716;51.556;5.080;2023-03-14T07:27:37;2.00;;;1.10;;
36747;SDS011;22716;51.556;5.080;2023-03-14T07:30:07;1.90;;;1.00;;
36747;SDS011;22716;51.556;5.080;2023-03-14T07:32:37;3.63;;;2.17;;
36747;SDS011;22716;51.556;5.080;2023-03-14T07:35:06;1.67;;;1.27;;
36747;SDS011;22716;51.556;5.080;2023-03-14T07:37:38;1.97;;;1.70;;
36747;SDS011;22716;51.556;5.080;2023-03-14T07:40:08;3.40;;;2.20;;
36747;SDS011;22716;51.556;5.080;2023-03-14T07:42:40;2.67;;;1.87;;
36747;SDS011;22716;51.556;5.080;2023-03-14T07:45:09;7.93;;;3.07;;
36747;SDS011;22716;51.556;5.080;2023-03-14T07:47:39;2.20;;;1.63;;
36747;SDS011;22716;51.556;5.080;2023-03-14T07:50:11;4.03;;;1.90;;
36747;SDS011;22716;51.556;5.080;2023-03-14T07:52:39;2.93;;;1.63;;
36747;SDS011;22716;51.556;5.080;2023-03-14T07:55:08;2.70;;;1.40;;
36747;SDS011;22716;51.556;5.080;2023-03-14T07:57:38;2.63;;;1.80;;
36747;SDS011;22716;51.556;5.080;2023-03-14T08:00:08;5.90;;;1.50;;
36747;SDS011;22716;51.556;5.080;2023-03-14T08:02:39;4.47;;;1.33;;
36747;SDS011;22716;51.556;5.080;2023-03-14T08:05:10;6.00;;;2.50;;
36747;SDS011;22716;51.556;5.080;2023-03-14T08:07:39;5.27;;;1.77;;
36747;SDS011;22716;51.556;5.080;2023-03-14T08:10:09;3.23;;;1.60;;
36747;SDS011;22716;51.556;5.080;2023-03-14T08:12:41;2.13;;;1.60;;
36747;SDS011;22716;51.556;5.080;2023-03-14T08:15:10;5.00;;;1.40;;
36747;SDS011;22716;51.556;5.080;2023-03-14T08:17:39;6.90;;;1.77;;
36747;SDS011;22716;51.556;5.080;2023-03-14T08:20:08;2.13;;;1.47;;
36747;SDS011;22716;51.556;5.080;2023-03-14T08:22:41;2.30;;;1.60;;
36747;SDS011;22716;51.556;5.080;2023-03-14T08:25:09;4.67;;;2.00;;
36747;SDS011;22716;51.556;5.080;2023-03-14T08:27:38;5.13;;;1.90;;
36747;SDS011;22716;51.556;5.080;2023-03-14T08:30:09;5.13;;;1.80;;
36747;SDS011;22716;51.556;5.080;2023-03-14T08:32:40;11.70;;;2.40;;
36747;SDS011;22716;51.556;5.080;2023-03-14T08:35:09;6.60;;;1.80;;
36747;SDS011;22716;51.556;5.080;2023-03-14T08:37:41;5.33;;;2.07;;
36747;SDS011;22716;51.556;5.080;2023-03-14T08:40:11;6.30;;;2.37;;
36747;SDS011;22716;51.556;5.080;2023-03-14T08:42:42;2.83;;;1.60;;
36747;SDS011;22716;51.556;5.080;2023-03-14T08:45:11;2.10;;;1.23;;
36747;SDS011;22716;51.556;5.080;2023-03-14T08:47:42;3.73;;;1.67;;
36747;SDS011;22716;51.556;5.080;2023-03-14T08:50:13;2.87;;;1.23;;
36747;SDS011;22716;51.556;5.080;2023-03-14T08:52:42;4.80;;;1.93;;
36747;SDS011;22716;51.556;5.080;2023-03-14T08:55:11;6.57;;;2.70;;
36747;SDS011;22716;51.556;5.080;2023-03-14T08:57:40;3.83;;;1.83;;
36747;SDS011;22716;51.556;5.080;2023-03-14T09:00:09;2.33;;;1.00;;
36747;SDS011;22716;51.556;5.080;2023-03-14T09:02:40;4.30;;;1.50;;
36747;SDS011;22716;51.556;5.080;2023-03-14T09:05:09;3.00;;;1.57;;
36747;SDS011;22716;51.556;5.080;2023-03-14T09:07:41;4.47;;;1.53;;
36747;SDS011;22716;51.556;5.080;2023-03-14T09:10:10;3.37;;;1.90;;
36747;SDS011;22716;51.556;5.080;2023-03-14T09:12:39;4.83;;;1.90;;
36747;SDS011;22716;51.556;5.080;2023-03-14T09:15:09;1.67;;;1.53;;
36747;SDS011;22716;51.556;5.080;2023-03-14T09:17:38;2.93;;;1.30;;
36747;SDS011;22716;51.556;5.080;2023-03-14T09:20:08;3.90;;;1.13;;
36747;SDS011;22716;51.556;5.080;2023-03-14T09:22:42;4.10;;;1.83;;
36747;SDS011;22716;51.556;5.080;2023-03-14T09:25:10;1.37;;;1.10;;
36747;SDS011;22716;51.556;5.080;2023-03-14T09:27:39;2.57;;;1.20;;
36747;SDS011;22716;51.556;5.080;2023-03-14T09:30:09;5.27;;;1.27;;
36747;SDS011;22716;51.556;5.080;2023-03-14T09:32:39;5.30;;;1.70;;
36747;SDS011;22716;51.556;5.080;2023-03-14T09:35:08;3.67;;;1.80;;
36747;SDS011;22716;51.556;5.080;2023-03-14T09:37:37;1.03;;;0.80;;
36747;SDS011;22716;51.556;5.080;2023-03-14T09:40:12;2.30;;;0.90;;
36747;SDS011;22716;51.556;5.080;2023-03-14T09:42:43;1.77;;;0.70;;
36747;SDS011;22716;51.556;5.080;2023-03-14T09:45:13;1.57;;;0.90;;
36747;SDS011;22716;51.556;5.080;2023-03-14T09:47:45;4.13;;;1.80;;
36747;SDS011;22716;51.556;5.080;2023-03-14T09:50:15;2.67;;;1.20;;
36747;SDS011;22716;51.556;5.080;2023-03-14T09:52:45;1.87;;;1.10;;
36747;SDS011;22716;51.556;5.080;2023-03-14T09:55:20;1.77;;;1.43;;
36747;SDS011;22716;51.556;5.080;2023-03-14T09:57:51;5.57;;;0.90;;
36747;SDS011;22716;51.556;5.080;2023-03-14T10:00:25;1.75;;;1.27;;
36747;SDS011;22716;51.556;5.080;2023-03-14T10:02:59;3.67;;;0.80;;
36747;SDS011;22716;51.556;5.080;2023-03-14T10:05:35;3.33;;;0.93;;
36747;SDS011;22716;51.556;5.080;2023-03-14T10:08:04;2.40;;;1.30;;
36747;SDS011;22716;51.556;5.080;2023-03-14T10:10:35;3.17;;;0.93;;
36747;SDS011;22716;51.556;5.080;2023-03-14T10:13:12;6.43;;;1.07;;
36747;SDS011;22716;51.556;5.080;2023-03-14T10:15:47;3.57;;;0.80;;
36747;SDS011;22716;51.556;5.080;2023-03-14T10:18:19;5.03;;;0.97;;
36747;SDS011;22716;51.556;5.080;2023-03-14T10:20:52;7.83;;;1.50;;
36747;SDS011;22716;51.556;5.080;2023-03-14T10:23:32;5.53;;;2.07;;
36747;SDS011;22716;51.556;5.080;2023-03-14T10:26:06;4.93;;;1.90;;
36747;SDS011;22716;51.556;5.080;2023-03-14T10:28:42;20.27;;;2.07;;
36747;SDS011;22716;51.556;5.080;2023-03-14T10:31:13;9.20;;;2.90;;
36747;SDS011;22716;51.556;5.080;2023-03-14T10:33:42;9.57;;;2.93;;
36747;SDS011;22716;51.556;5.080;2023-03-14T10:36:27;9.93;;;1.90;;
36747;SDS011;22716;51.556;5.080;2023-03-14T10:38:57;12.07;;;2.77;;
36747;SDS011;22716;51.556;5.080;2023-03-14T10:41:50;14.23;;;3.90;;
36747;SDS011;22716;51.556;5.080;2023-03-14T10:44:23;8.50;;;1.83;;
36747;SDS011;22716;51.556;5.080;2023-03-14T10:46:58;6.27;;;3.10;;
36747;SDS011;22716;51.556;5.080;2023-03-14T10:49:29;11.40;;;2.70;;
36747;SDS011;22716;51.556;5.080;2023-03-14T10:52:12;9.10;;;2.00;;
36747;SDS011;22716;51.556;5.080;2023-03-14T10:54:46;5.70;;;1.77;;
36747;SDS011;22716;51.556;5.080;2023-03-14T10:57:19;14.17;;;5.00;;
36747;SDS011;22716;51.556;5.080;2023-03-14T10:59:49;9.70;;;2.13;;
36747;SDS011;22716;51.556;5.080;2023-03-14T11:02:27;7.33;;;1.97;;
36747;SDS011;22716;51.556;5.080;2023-03-14T11:05:11;15.67;;;2.43;;
36747;SDS011;22716;51.556;5.080;2023-03-14T11:07:54;12.23;;;4.70;;
36747;SDS011;22716;51.556;5.080;2023-03-14T11:10:31;10.73;;;2.80;;
36747;SDS011;22716;51.556;5.080;2023-03-14T11:13:08;13.95;;;2.80;;
36747;SDS011;22716;51.556;5.080;2023-03-14T11:15:47;10.77;;;3.50;;
36747;SDS011;22716;51.556;5.080;2023-03-14T11:18:34;11.33;;;2.97;;
36747;SDS011;22716;51.556;5.080;2023-03-14T11:21:18;12.83;;;3.80;;
36747;SDS011;22716;51.556;5.080;2023-03-14T11:23:56;9.73;;;2.43;;
36747;SDS011;22716;51.556;5.080;2023-03-14T11:26:37;10.43;;;2.73;;
36747;SDS011;22716;51.556;5.080;2023-03-14T11:29:16;13.48;;;2.80;;
36747;SDS011;22716;51.556;5.080;2023-03-14T11:31:49;8.93;;;3.40;;
36747;SDS011;22716;51.556;5.080;2023-03-14T11:34:22;18.03;;;4.73;;
36747;SDS011;22716;51.556;5.080;2023-03-14T11:36:58;21.53;;;3.80;;
36747;SDS011;22716;51.556;5.080;2023-03-14T11:39:34;20.27;;;4.20;;
36747;SDS011;22716;51.556;5.080;2023-03-14T11:42:08;22.30;;;3.37;;
36747;SDS011;22716;51.556;5.080;2023-03-14T11:44:43;14.73;;;3.53;;
36747;SDS011;22716;51.556;5.080;2023-03-14T11:47:16;7.93;;;2.20;;
36747;SDS011;22716;51.556;5.080;2023-03-14T11:52:21;15.50;;;3.57;;
36747;SDS011;22716;51.556;5.080;2023-03-14T11:54:58;16.13;;;5.87;;
36747;SDS011;22716;51.556;5.080;2023-03-14T11:57:33;11.73;;;3.47;;
36747;SDS011;22716;51.556;5.080;2023-03-14T12:00:12;8.13;;;2.10;;
36747;SDS011;22716;51.556;5.080;2023-03-14T12:02:47;15.27;;;4.00;;
36747;SDS011;22716;51.556;5.080;2023-03-14T12:05:30;16.37;;;4.13;;
36747;SDS011;22716;51.556;5.080;2023-03-14T12:11:09;8.87;;;3.80;;
36747;SDS011;22716;51.556;5.080;2023-03-14T12:13:41;22.50;;;4.33;;
36747;SDS011;22716;51.556;5.080;2023-03-14T12:16:30;19.48;;;3.92;;
36747;SDS011;22716;51.556;5.080;2023-03-14T12:21:57;14.18;;;3.78;;
36747;SDS011;22716;51.556;5.080;2023-03-14T12:24:30;16.63;;;3.70;;
36747;SDS011;22716;51.556;5.080;2023-03-14T12:27:02;8.03;;;2.97;;
36747;SDS011;22716;51.556;5.080;2023-03-14T12:29:37;13.43;;;2.50;;
36747;SDS011;22716;51.556;5.080;2023-03-14T12:32:28;9.63;;;2.80;;
36747;SDS011;22716;51.556;5.080;2023-03-14T12:34:57;10.80;;;2.77;;
36747;SDS011;22716;51.556;5.080;2023-03-14T12:37:55;14.17;;;3.47;;
36747;SDS011;22716;51.556;5.080;2023-03-14T12:40:29;10.63;;;2.67;;
36747;SDS011;22716;51.556;5.080;2023-03-14T12:43:00;14.40;;;3.00;;
36747;SDS011;22716;51.556;5.080;2023-03-14T12:45:31;12.40;;;3.73;;
36747;SDS011;22716;51.556;5.080;2023-03-14T12:48:07;13.47;;;2.90;;
36747;SDS011;22716;51.556;5.080;2023-03-14T12:50:43;10.40;;;2.40;;
36747;SDS011;22716;51.556;5.080;2023-03-14T13:02:10;5.13;;;1.57;;
36747;SDS011;22716;51.556;5.080;2023-03-14T13:04:53;7.60;;;1.63;;
36747;SDS011;22716;51.556;5.080;2023-03-14T13:07:31;5.33;;;1.60;;
36747;SDS011;22716;51.556;5.080;2023-03-14T13:10:16;6.33;;;1.30;;
36747;SDS011;22716;51.556;5.080;2023-03-14T13:12:49;9.27;;;2.23;;
36747;SDS011;22716;51.556;5.080;2023-03-14T13:15:22;10.40;;;1.83;;
36747;SDS011;22716;51.556;5.080;2023-03-14T13:17:54;6.85;;;2.58;;
36747;SDS011;22716;51.556;5.080;2023-03-14T13:20:31;7.57;;;1.80;;
36747;SDS011;22716;51.556;5.080;2023-03-14T13:23:03;7.70;;;1.70;;
36747;SDS011;22716;51.556;5.080;2023-03-14T13:25:32;4.80;;;1.80;;
36747;SDS011;22716;51.556;5.080;2023-03-14T13:28:03;11.07;;;2.20;;
36747;SDS011;22716;51.556;5.080;2023-03-14T13:30:36;6.83;;;2.03;;
36747;SDS011;22716;51.556;5.080;2023-03-14T13:33:11;8.83;;;1.80;;
36747;SDS011;22716;51.556;5.080;2023-03-14T13:35:45;6.77;;;1.80;;
36747;SDS011;22716;51.556;5.080;2023-03-14T13:38:17;6.55;;;1.42;;
36747;SDS011;22716;51.556;5.080;2023-03-14T13:40:48;6.77;;;2.07;;
36747;SDS011;22716;51.556;5.080;2023-03-14T13:43:19;10.33;;;2.53;;
36747;SDS011;22716;51.556;5.080;2023-03-14T13:45:52;14.57;;;2.43;;
36747;SDS011;22716;51.556;5.080;2023-03-14T13:48:25;6.87;;;1.03;;
36747;SDS011;22716;51.556;5.080;2023-03-14T13:50:59;5.83;;;1.87;;
36747;SDS011;22716;51.556;5.080;2023-03-14T13:53:30;6.82;;;1.95;;
36747;SDS011;22716;51.556;5.080;2023-03-14T13:56:10;8.50;;;1.57;;
36747;SDS011;22716;51.556;5.080;2023-03-14T13:58:40;8.20;;;1.53;;
36747;SDS011;22716;51.556;5.080;2023-03-14T14:01:12;8.23;;;2.07;;
36747;SDS011;22716;51.556;5.080;2023-03-14T14:03:44;7.00;;;1.73;;
36747;SDS011;22716;51.556;5.080;2023-03-14T14:09:10;8.20;;;2.77;;
36747;SDS011;22716;51.556;5.080;2023-03-14T14:11:41;8.27;;;2.50;;
36747;SDS011;22716;51.556;5.080;2023-03-14T14:14:14;5.47;;;1.55;;
36747;SDS011;22716;51.556;5.080;2023-03-14T14:19:18;5.77;;;1.67;;
36747;SDS011;22716;51.556;5.080;2023-03-14T14:21:52;6.43;;;1.77;;
36747;SDS011;22716;51.556;5.080;2023-03-14T14:24:22;7.17;;;2.33;;
36747;SDS011;22716;51.556;5.080;2023-03-14T14:26:54;9.90;;;1.57;;
36747;SDS011;22716;51.556;5.080;2023-03-14T14:29:28;3.63;;;1.20;;
36747;SDS011;22716;51.556;5.080;2023-03-14T14:31:59;7.57;;;1.73;;
36747;SDS011;22716;51.556;5.080;2023-03-14T14:34:30;6.40;;;1.40;;
36747;SDS011;22716;51.556;5.080;2023-03-14T14:37:24;14.30;;;5.35;;
36747;SDS011;22716;51.556;5.080;2023-03-14T14:39:55;10.63;;;3.17;;
36747;SDS011;22716;51.556;5.080;2023-03-14T14:42:27;11.47;;;3.77;;
36747;SDS011;22716;51.556;5.080;2023-03-14T14:44:57;6.07;;;1.90;;
36747;SDS011;22716;51.556;5.080;2023-03-14T14:47:28;8.93;;;2.00;;
36747;SDS011;22716;51.556;5.080;2023-03-14T14:49:58;5.90;;;2.17;;
36747;SDS011;22716;51.556;5.080;2023-03-14T14:52:37;9.25;;;1.98;;
36747;SDS011;22716;51.556;5.080;2023-03-14T14:55:16;10.50;;;2.70;;
36747;SDS011;22716;51.556;5.080;2023-03-14T14:57:50;10.60;;;4.27;;
36747;SDS011;22716;51.556;5.080;2023-03-14T15:00:22;14.47;;;2.67;;
36747;SDS011;22716;51.556;5.080;2023-03-14T15:02:52;12.63;;;2.67;;
36747;SDS011;22716;51.556;5.080;2023-03-14T15:05:24;8.13;;;2.63;;
36747;SDS011;22716;51.556;5.080;2023-03-14T15:07:58;6.37;;;2.10;;
36747;SDS011;22716;51.556;5.080;2023-03-14T15:10:26;7.47;;;1.53;;
36747;SDS011;22716;51.556;5.080;2023-03-14T15:12:55;5.90;;;1.33;;
36747;SDS011;22716;51.556;5.080;2023-03-14T15:15:24;8.17;;;2.00;;
36747;SDS011;22716;51.556;5.080;2023-03-14T15:17:53;11.60;;;2.87;;
36747;SDS011;22716;51.556;5.080;2023-03-14T15:20:22;10.97;;;2.77;;
36747;SDS011;22716;51.556;5.080;2023-03-14T15:22:51;8.70;;;1.80;;
36747;SDS011;22716;51.556;5.080;2023-03-14T15:25:23;6.77;;;2.00;;
36747;SDS011;22716;51.556;5.080;2023-03-14T15:27:52;10.30;;;1.90;;
36747;SDS011;22716;51.556;5.080;2023-03-14T15:30:21;3.67;;;1.53;;
36747;SDS011;22716;51.556;5.080;2023-03-14T15:32:50;4.60;;;1.30;;
36747;SDS011;22716;51.556;5.080;2023-03-14T15:35:19;8.17;;;1.77;;
36747;SDS011;22716;51.556;5.080;2023-03-14T15:37:47;10.90;;;2.60;;